CEST,Max TemperatureF,Mean TemperatureF,Min TemperatureF,Max Dew PointF,MeanDew PointF,Min DewpointF,Max Humidity, Mean Humidity, Min Humidity, Max Sea Level PressureIn, Mean Sea Level PressureIn, Min Sea Level PressureIn, Max VisibilityMiles, Mean VisibilityMiles, Min VisibilityMiles, Max Wind SpeedMPH, Mean Wind SpeedMPH, Max Gust SpeedMPH,PrecipitationIn, CloudCover, Events, WindDirDegrees
2014-3-1,53,48,44,48,45,41,94,85,75,29.78,29.59,29.47,16,5,1,16,6,28,0.63,5,Rain-Thunderstorm,166
2014-3-2,53,46,38,43,41,37,93,81,62,29.57,29.48,29.42,12,7,4,13,4,,0.16,3,Rain,25
2014-3-3,58,48,38,45,41,36,93,69,40,29.56,29.50,29.36,19,8,6,10,6,,0.03,3,Rain,254
2014-3-4,57,52,46,48,43,37,94,75,43,29.50,29.38,29.30,16,7,4,16,8,17,0.03,5,Rain,227
2014-3-5,60,51,42,45,41,37,93,66,33,29.82,29.64,29.50,16,7,6,18,6,,0.04,4,Rain,34
2014-3-6,60,54,48,43,40,37,71,58,36,30.02,29.91,29.80,6,6,6,21,9,,0.03,4,,43
2014-3-7,61,55,49,46,42,37,82,60,36,30.11,30.04,30.01,19,7,6,20,9,23,0.03,3,Rain,45
2014-3-8,60,54,47,43,41,37,71,60,39,30.25,30.14,30.06,6,6,6,20,10,,0.02,4,,41
2014-3-9,63,56,49,41,38,34,67,49,30,30.25,30.18,30.09,19,7,6,20,11,29,0.01,2,,32
2014-3-10,56,52,48,42,39,36,71,58,39,30.09,30.03,29.98,12,6,6,17,8,,0.01,5,,30
2014-3-11,55,49,43,41,38,36,81,60,38,30.25,30.11,30.01,19,7,6,14,7,,0.00,5,,36
2014-3-12,64,54,45,43,37,28,81,51,20,30.37,30.32,30.24,19,9,6,10,5,,0.00,5,,351
2014-3-13,64,52,40,43,39,30,81,57,24,30.37,30.31,30.27,19,12,5,13,4,,0.00,,,293
2014-3-14,66,56,46,50,43,37,88,64,32,30.30,30.23,30.18,12,6,4,9,4,,0.00,3,,269
2014-3-15,65,55,45,52,46,41,94,70,42,30.19,30.09,29.98,6,5,3,10,4,,0.00,1,,258
2014-3-16,65,55,45,54,49,44,94,78,49,30.09,30.00,29.92,9,5,2,9,3,,0.00,1,,239
2014-3-17,63,56,49,54,53,48,100,85,60,30.23,30.15,30.09,5,3,1,9,3,,0.00,5,,158
2014-3-18,64,58,50,54,52,48,94,80,59,30.25,30.20,30.15,7,4,2,10,4,,0.00,5,,192
2014-3-19,64,56,47,52,50,46,96,79,52,30.22,30.17,30.12,9,4,1,9,4,,0.00,4,,220
2014-3-20,73,60,47,52,48,45,94,65,30,30.24,30.20,30.18,16,7,5,9,3,,0.00,,,291
2014-3-21,67,58,48,55,50,46,94,72,41,30.20,30.16,30.12,12,6,2,10,4,,0.00,,,189
2014-3-22,65,58,50,55,52,48,94,78,51,30.16,30.07,29.98,16,6,2,12,4,,0.00,3,,182
2014-3-23,62,56,51,55,51,45,94,78,59,29.98,29.85,29.62,16,6,2,16,7,30,0.00,4,Rain-Hail-Thunderstorm,207
2014-3-24,56,50,42,45,41,36,93,73,47,29.83,29.80,29.74,9,6,4,28,8,34,0.12,4,Rain,235
2014-3-25,56,46,36,46,42,36,100,83,51,29.86,29.80,29.71,12,6,4,12,4,,0.39,4,Rain,122
2014-3-26,59,50,41,48,44,39,100,76,49,29.80,29.75,29.68,19,7,4,12,6,,0.01,3,Rain,116
2014-3-27,57,52,48,48,46,41,94,79,55,29.69,29.61,29.56,19,6,2,13,7,24,0.43,6,Rain,153
2014-3-28,63,54,45,48,43,39,87,66,38,30.07,29.87,29.68,19,8,6,14,5,,0.00,2,,353
2014-3-29,69,57,45,48,44,37,76,59,31,30.14,30.10,30.06,19,19,19,12,4,,0.00,,,13
2014-3-30,68,58,48,45,41,34,76,51,20,30.13,30.07,30.01,19,18,12,10,4,,0.00,,,298
2014-3-31,69,57,45,52,45,39,88,61,32,30.05,30.01,29.95,19,15,12,9,3,,0.00,,,284